createdAt,value
2019-06-01T00:01:53.403Z,18.34
2019-06-01T00:04:23.768Z,18.39
2019-06-01T00:06:54.502Z,18.30
2019-06-01T00:09:25.282Z,18.36
2019-06-01T00:11:55.933Z,18.47
2019-06-01T00:14:26.381Z,18.14
2019-06-01T00:16:56.627Z,18.25
2019-06-01T00:19:27.101Z,18.39
2019-06-01T00:21:57.335Z,18.31
2019-06-01T00:24:29.074Z,18.26
2019-06-01T00:26:59.406Z,18.34
2019-06-01T00:29:33.989Z,18.27
2019-06-01T00:32:04.755Z,18.18
2019-06-01T00:34:34.923Z,18.10
2019-06-01T00:37:12.200Z,18.16
2019-06-01T00:39:43.698Z,17.80
2019-06-01T00:42:17.360Z,18.03
2019-06-01T00:44:48.476Z,17.71
2019-06-01T00:47:19.082Z,17.87
2019-06-01T00:49:49.158Z,17.92
2019-06-01T00:52:19.156Z,17.89
2019-06-01T00:54:49.600Z,17.96
2019-06-01T00:57:22.259Z,17.90
2019-06-01T00:59:53.668Z,17.94
2019-06-01T01:02:25.882Z,17.86
2019-06-01T01:05:28.325Z,17.78
2019-06-01T01:07:58.997Z,17.79
2019-06-01T01:10:29.539Z,17.45
2019-06-01T01:13:27.540Z,17.45
2019-06-01T01:15:58.557Z,17.47
2019-06-01T01:18:28.608Z,17.02
2019-06-01T01:20:58.751Z,17.30
2019-06-01T01:23:30.673Z,17.30
2019-06-01T01:26:01.084Z,17.18
2019-06-01T01:28:32.315Z,17.07
2019-06-01T01:31:12.714Z,17.26
2019-06-01T01:33:34.513Z,17.33
2019-06-01T01:36:04.558Z,17.46
2019-06-01T01:38:36.599Z,17.49
2019-06-01T01:41:06.804Z,17.36
2019-06-01T01:43:37.165Z,17.47
2019-06-01T01:46:07.872Z,17.33
2019-06-01T01:48:37.938Z,17.40
2019-06-01T01:51:09.090Z,17.23
2019-06-01T01:53:39.573Z,17.11
2019-06-01T01:56:10.785Z,17.15
2019-06-01T01:58:41.322Z,17.07
2019-06-01T02:01:22.236Z,16.90
2019-06-01T02:03:43.811Z,16.72
2019-06-01T02:06:13.931Z,16.66
2019-06-01T02:08:44.574Z,16.67
2019-06-01T02:11:15.308Z,16.76
2019-06-01T02:13:45.742Z,16.76
2019-06-01T02:16:16.518Z,16.58
2019-06-01T02:18:46.738Z,16.45
2019-06-01T02:21:16.836Z,16.37
2019-06-01T02:23:46.838Z,16.45
2019-06-01T02:26:17.489Z,16.30
2019-06-01T02:28:48.356Z,16.57
2019-06-01T02:31:18.729Z,16.57
2019-06-01T02:33:49.492Z,16.76
2019-06-01T02:36:19.628Z,16.83
2019-06-01T02:38:49.709Z,16.57
2019-06-01T02:41:21.620Z,16.72
2019-06-01T02:43:54.643Z,16.64
2019-06-01T02:46:26.893Z,16.65
2019-06-01T02:48:59.777Z,16.66
2019-06-01T02:51:31.563Z,16.66
2019-06-01T02:54:04.068Z,16.89
2019-06-01T02:56:34.485Z,16.74
2019-06-01T02:59:04.581Z,16.53
2019-06-01T03:01:36.795Z,16.54
2019-06-01T03:04:08.661Z,16.72
2019-06-01T03:06:41.864Z,16.58
2019-06-01T03:09:12.956Z,16.61
2019-06-01T03:11:44.017Z,16.51
2019-06-01T03:14:15.405Z,16.67
2019-06-01T03:16:45.933Z,16.72
2019-06-01T03:19:17.754Z,16.53
2019-06-01T03:21:49.834Z,16.39
2019-06-01T03:24:25.963Z,16.47
2019-06-01T03:26:58.289Z,16.57
2019-06-01T03:29:31.943Z,16.52
2019-06-01T03:32:24.133Z,16.43
2019-06-01T03:34:37.308Z,16.42
2019-06-01T03:37:09.069Z,16.25
2019-06-01T03:39:39.688Z,16.35
2019-06-01T03:42:12.627Z,16.50
2019-06-01T03:44:43.909Z,16.41
2019-06-01T03:47:15.176Z,16.24
2019-06-01T03:49:46.166Z,16.33
2019-06-01T03:52:16.637Z,16.61
2019-06-01T03:54:48.783Z,16.63
2019-06-01T03:57:21.246Z,16.55
2019-06-01T03:59:53.362Z,16.54
2019-06-01T04:02:32.800Z,16.43
2019-06-01T04:04:59.042Z,16.39
2019-06-01T04:07:29.763Z,16.62
2019-06-01T04:10:01.626Z,16.57
2019-06-01T04:12:32.114Z,16.47
2019-06-01T04:15:09.559Z,16.37
2019-06-01T04:17:35.577Z,16.43
2019-06-01T04:20:08.178Z,16.53
2019-06-01T04:22:40.036Z,16.43
2019-06-01T04:25:12.355Z,16.46
2019-06-01T04:27:42.940Z,16.56
2019-06-01T04:30:15.346Z,16.59
2019-06-01T04:32:50.041Z,16.62
2019-06-01T04:35:19.174Z,16.55
2019-06-01T04:37:49.920Z,16.73
2019-06-01T04:40:19.932Z,16.93
2019-06-01T04:42:49.916Z,16.90
2019-06-01T04:45:20.091Z,16.81
2019-06-01T04:47:51.137Z,16.78
2019-06-01T04:50:22.012Z,16.75
2019-06-01T04:52:54.492Z,16.72
2019-06-01T04:55:31.268Z,16.90
2019-06-01T04:57:59.013Z,16.86
2019-06-01T05:00:29.666Z,17.92
2019-06-01T05:03:05.295Z,18.26
2019-06-01T05:05:32.859Z,18.62
2019-06-01T05:08:03.129Z,18.14
2019-06-01T05:10:35.048Z,18.52
2019-06-01T05:13:07.347Z,18.58
2019-06-01T05:15:38.422Z,18.46
2019-06-01T05:18:08.457Z,18.23
2019-06-01T05:20:38.399Z,18.30
2019-06-01T05:23:10.597Z,19.13
2019-06-01T05:25:42.601Z,19.03
2019-06-01T05:28:15.297Z,18.89
2019-06-01T05:30:46.520Z,18.98
2019-06-01T05:33:33.235Z,18.79
2019-06-01T05:35:51.028Z,19.01
2019-06-01T05:38:22.875Z,19.13
2019-06-01T05:40:55.172Z,19.32
2019-06-01T05:43:27.909Z,19.31
2019-06-01T05:45:58.297Z,19.29
2019-06-01T05:48:30.782Z,19.25
2019-06-01T05:51:00.824Z,19.25
2019-06-01T05:53:32.183Z,19.70
2019-06-01T05:56:02.384Z,18.96
2019-06-01T05:58:33.152Z,19.32
2019-06-01T06:01:05.147Z,19.22
2019-06-01T06:03:40.488Z,19.44
2019-06-01T06:06:11.693Z,19.77
2019-06-01T06:08:43.292Z,19.83
2019-06-01T06:11:14.910Z,19.92
2019-06-01T06:13:45.519Z,20.30
2019-06-01T06:16:20.734Z,20.55
2019-06-01T06:18:54.409Z,20.34
2019-06-01T06:21:25.099Z,20.37
2019-06-01T06:23:55.028Z,20.64
2019-06-01T06:26:25.496Z,20.21
2019-06-01T06:28:57.014Z,20.03
2019-06-01T06:31:29.624Z,20.25
2019-06-01T06:34:02.305Z,20.38
2019-06-01T06:36:33.356Z,19.97
2019-06-01T06:39:06.900Z,19.83
2019-06-01T06:41:38.365Z,20.60
2019-06-01T06:44:10.616Z,20.19
2019-06-01T06:46:41.759Z,20.58
2019-06-01T06:49:14.997Z,20.90
2019-06-01T06:51:46.382Z,20.66
2019-06-01T06:54:19.881Z,20.96
2019-06-01T06:56:51.318Z,20.82
2019-06-01T06:59:26.748Z,21.18
2019-06-01T07:01:59.193Z,21.35
2019-06-01T07:04:29.171Z,21.54
2019-06-01T07:07:00.828Z,21.29
2019-06-01T07:09:31.642Z,21.45
2019-06-01T07:12:01.796Z,21.25
2019-06-01T07:14:32.607Z,21.16
2019-06-01T07:17:03.884Z,20.73
2019-06-01T07:19:35.877Z,21.60
2019-06-01T07:22:07.910Z,21.22
2019-06-01T07:24:37.854Z,21.37
2019-06-01T07:27:09.573Z,22.09
2019-06-01T07:29:40.599Z,22.13
2019-06-01T07:32:12.989Z,21.34
2019-06-01T07:34:44.824Z,22.17
2019-06-01T07:37:18.258Z,22.41
2019-06-01T07:39:49.106Z,22.03
2019-06-01T07:42:24.476Z,22.63
2019-06-01T07:44:54.109Z,22.60
2019-06-01T07:47:25.027Z,22.72
2019-06-01T07:49:55.867Z,22.55
2019-06-01T07:52:28.270Z,22.93
2019-06-01T07:54:59.234Z,22.13
2019-06-01T07:57:29.852Z,22.03
2019-06-01T08:00:01.961Z,22.12
2019-06-01T08:02:33.262Z,22.33
2019-06-01T08:05:09.864Z,23.02
2019-06-01T08:07:47.523Z,23.10
2019-06-01T08:10:27.704Z,23.40
2019-06-01T08:12:59.034Z,23.42
2019-06-01T08:15:31.849Z,23.35
2019-06-01T08:18:04.352Z,22.57
2019-06-01T08:20:38.602Z,23.43
2019-06-01T08:23:13.524Z,22.92
2019-06-01T08:25:46.434Z,23.40
2019-06-01T08:28:16.557Z,23.63
2019-06-01T08:30:46.562Z,23.25
2019-06-01T08:33:16.540Z,23.77
2019-06-01T08:35:51.622Z,24.36
2019-06-01T08:38:23.352Z,23.94
2019-06-01T08:40:55.288Z,23.81
2019-06-01T08:43:25.537Z,23.56
2019-06-01T08:45:58.032Z,23.13
2019-06-01T08:48:29.900Z,24.04
2019-06-01T08:51:01.995Z,23.19
2019-06-01T08:53:34.263Z,23.28
2019-06-01T08:56:06.136Z,23.10
2019-06-01T08:58:38.790Z,23.62
2019-06-01T09:01:08.963Z,24.10
2019-06-01T09:03:45.531Z,24.10
2019-06-01T09:06:11.252Z,23.98
2019-06-01T09:08:42.295Z,23.73
2019-06-01T09:11:15.287Z,24.51
2019-06-01T09:13:45.426Z,23.69
2019-06-01T09:16:17.029Z,23.57
2019-06-01T09:18:47.674Z,24.68
2019-06-01T09:21:19.171Z,24.44
2019-06-01T09:23:50.344Z,24.81
2019-06-01T09:26:21.055Z,24.71
2019-06-01T09:28:51.634Z,25.02
2019-06-01T09:31:22.782Z,25.41
2019-06-01T09:33:54.456Z,24.68
2019-06-01T09:36:26.121Z,25.52
2019-06-01T09:38:56.261Z,24.70
2019-06-01T09:41:28.300Z,24.58
2019-06-01T09:44:00.138Z,24.12
2019-06-01T09:46:32.262Z,24.45
2019-06-01T09:49:03.728Z,24.82
2019-06-01T09:51:35.747Z,25.31
2019-06-01T09:54:05.863Z,24.30
2019-06-01T09:56:38.184Z,24.94
2019-06-01T09:59:08.892Z,24.63
2019-06-01T10:01:40.506Z,24.93
2019-06-01T10:04:11.542Z,24.53
2019-06-01T10:06:41.794Z,24.84
2019-06-01T10:09:12.110Z,25.09
2019-06-01T10:11:42.433Z,25.40
2019-06-01T10:14:14.027Z,25.88
2019-06-01T10:16:43.971Z,26.05
2019-06-01T10:19:14.701Z,25.93
2019-06-01T10:21:47.433Z,25.51
2019-06-01T10:24:18.221Z,25.62
2019-06-01T10:26:48.686Z,25.50
2019-06-01T10:29:19.823Z,25.72
2019-06-01T10:31:50.502Z,25.77
2019-06-01T10:34:20.533Z,26.34
2019-06-01T10:36:53.354Z,26.00
2019-06-01T10:39:24.898Z,25.76
2019-06-01T10:41:55.476Z,25.60
2019-06-01T10:44:26.403Z,25.91
2019-06-01T10:46:57.653Z,26.00
2019-06-01T10:49:28.487Z,25.94
2019-06-01T10:51:59.386Z,26.16
2019-06-01T10:54:32.543Z,26.98
2019-06-01T10:57:03.484Z,26.41
2019-06-01T10:59:34.263Z,26.89
2019-06-01T11:02:04.232Z,26.07
2019-06-01T11:04:35.272Z,26.40
2019-06-01T11:07:06.594Z,25.86
2019-06-01T11:09:36.915Z,25.69
2019-06-01T11:12:07.985Z,25.65
2019-06-01T11:14:39.079Z,26.23
2019-06-01T11:17:09.210Z,26.33
2019-06-01T11:19:39.495Z,26.69
2019-06-01T11:22:10.065Z,26.27
2019-06-01T11:24:40.199Z,25.88
2019-06-01T11:27:10.370Z,26.01
2019-06-01T11:29:49.110Z,25.88
2019-06-01T11:32:12.274Z,26.82
2019-06-01T11:34:42.544Z,25.90
2019-06-01T11:37:15.859Z,25.37
2019-06-01T11:39:46.017Z,25.65
2019-06-01T11:42:19.771Z,25.33
2019-06-01T11:44:49.805Z,26.44
2019-06-01T11:47:19.873Z,25.78
2019-06-01T11:49:49.952Z,26.10
2019-06-01T11:52:20.636Z,25.94
2019-06-01T11:54:50.911Z,26.65
2019-06-01T11:57:20.871Z,26.78
2019-06-01T11:59:51.555Z,27.22
2019-06-01T12:02:22.828Z,27.32
2019-06-01T12:04:52.760Z,27.83
2019-06-01T12:07:37.715Z,28.10
2019-06-01T12:10:09.456Z,28.11
2019-06-01T12:12:40.287Z,27.50
2019-06-01T12:15:10.666Z,26.65
2019-06-01T12:17:42.734Z,26.96
2019-06-01T12:20:13.196Z,27.42
2019-06-01T12:22:43.207Z,26.71
2019-06-01T12:25:13.085Z,27.18
2019-06-01T12:28:39.963Z,27.41
2019-06-01T12:42:51.862Z,27.58
2019-06-01T12:48:56.697Z,27.71
2019-06-01T12:51:25.408Z,27.14
2019-06-01T12:52:34.931Z,27.50
2019-06-01T12:54:10.725Z,28.05
2019-06-01T12:56:41.062Z,27.64
2019-06-01T12:59:18.051Z,28.00
2019-06-01T13:01:51.354Z,27.61
2019-06-01T13:04:21.905Z,28.03
2019-06-01T13:06:54.008Z,28.31
2019-06-01T13:09:24.203Z,28.48
2019-06-01T13:11:54.204Z,28.62
2019-06-01T13:14:25.467Z,28.36
2019-06-01T13:17:06.697Z,28.10
2019-06-01T13:19:30.222Z,27.58
2019-06-01T13:22:00.839Z,29.07
2019-06-01T13:24:30.838Z,28.18
2019-06-01T13:27:00.910Z,28.06
2019-06-01T13:29:31.141Z,27.40
2019-06-01T13:32:01.262Z,27.43
2019-06-01T13:34:34.220Z,28.14
2019-06-01T13:37:03.678Z,27.39
2019-06-01T13:39:38.091Z,27.67
2019-06-01T13:42:08.521Z,27.93
2019-06-01T13:44:39.490Z,28.40
2019-06-01T13:47:10.342Z,27.72
2019-06-01T13:49:41.529Z,28.50
2019-06-01T13:52:12.173Z,27.90
2019-06-01T13:54:42.191Z,28.15
2019-06-01T13:57:13.091Z,28.30
2019-06-01T13:59:44.579Z,27.98
2019-06-01T14:02:15.122Z,27.77
2019-06-01T14:04:45.720Z,28.22
2019-06-01T14:07:15.716Z,27.94
2019-06-01T14:09:46.995Z,27.70
2019-06-01T14:12:18.875Z,27.92
2019-06-01T14:14:49.341Z,27.83
2019-06-01T14:17:19.324Z,27.70
2019-06-01T14:19:49.695Z,27.91
2019-06-01T14:22:19.648Z,28.45
2019-06-01T14:24:59.887Z,29.26
2019-06-01T14:27:21.831Z,28.19
2019-06-01T14:29:54.354Z,28.29
2019-06-01T14:32:25.751Z,28.47
2019-06-01T14:34:56.931Z,27.94
2019-06-01T14:37:27.571Z,27.96
2019-06-01T14:40:01.615Z,28.43
2019-06-01T14:42:32.444Z,28.19
2019-06-01T14:45:03.852Z,28.58
2019-06-01T14:47:34.654Z,28.36
2019-06-01T14:50:05.371Z,28.64
2019-06-01T14:52:35.491Z,28.18
2019-06-01T14:55:06.007Z,28.81
2019-06-01T14:57:36.437Z,28.32
2019-06-01T15:00:07.612Z,28.28
2019-06-01T15:02:37.673Z,28.03
2019-06-01T15:05:08.407Z,28.13
2019-06-01T15:07:39.720Z,27.98
2019-06-01T15:10:12.372Z,27.67
2019-06-01T15:12:43.118Z,27.96
2019-06-01T15:15:15.620Z,27.93
2019-06-01T15:17:46.793Z,28.12
2019-06-01T15:20:17.123Z,27.82
2019-06-01T15:22:48.105Z,27.84
2019-06-01T15:25:20.170Z,28.29
2019-06-01T15:27:50.649Z,28.02
2019-06-01T15:30:21.444Z,27.97
2019-06-01T15:32:54.061Z,28.00
2019-06-01T15:35:24.074Z,28.61
2019-06-01T15:37:58.410Z,28.27
2019-06-01T15:40:26.621Z,27.71
2019-06-01T15:42:59.369Z,27.76
2019-06-01T15:45:31.234Z,27.50
2019-06-01T15:48:02.514Z,27.80
2019-06-01T15:50:33.466Z,27.54
2019-06-01T15:53:04.565Z,27.33
2019-06-01T15:55:35.322Z,27.18
2019-06-01T15:58:06.365Z,27.27
2019-06-01T16:00:36.391Z,27.68
2019-06-01T16:03:07.755Z,27.72
2019-06-01T16:05:38.631Z,27.65
2019-06-01T16:08:09.059Z,27.66
2019-06-01T16:10:39.298Z,27.64
2019-06-01T16:13:10.860Z,27.85
2019-06-01T16:15:45.140Z,27.53
2019-06-01T16:18:18.463Z,27.56
2019-06-01T16:20:49.218Z,27.57
2019-06-01T16:23:20.414Z,27.59
2019-06-01T16:26:03.850Z,27.09
2019-06-01T16:28:22.132Z,27.17
2019-06-01T16:30:52.625Z,27.27
2019-06-01T16:33:23.093Z,27.21
2019-06-01T16:35:54.900Z,27.02
2019-06-01T16:38:24.983Z,26.97
2019-06-01T16:40:57.577Z,26.78
2019-06-01T16:43:27.486Z,27.04
2019-06-01T16:45:57.668Z,27.05
2019-06-01T16:48:27.684Z,27.08
2019-06-01T16:50:57.999Z,27.23
2019-06-01T16:53:27.853Z,27.32
2019-06-01T16:55:58.270Z,27.23
2019-06-01T16:58:28.448Z,27.12
2019-06-01T17:00:58.702Z,27.28
2019-06-01T17:03:30.232Z,27.15
2019-06-01T17:06:00.616Z,27.32
2019-06-01T17:08:30.672Z,27.27
2019-06-01T17:11:01.072Z,27.49
2019-06-01T17:13:35.114Z,27.15
2019-06-01T17:16:07.220Z,27.24
2019-06-01T17:18:37.308Z,27.21
2019-06-01T17:21:07.563Z,27.24
2019-06-01T17:23:37.653Z,27.27
2019-06-01T17:26:10.941Z,27.39
2019-06-01T17:28:41.410Z,27.00
2019-06-01T17:31:12.311Z,27.29
2019-06-01T17:33:43.480Z,27.31
2019-06-01T17:36:13.510Z,27.19
2019-06-01T17:38:43.970Z,27.03
2019-06-01T17:41:13.953Z,27.07
2019-06-01T17:43:44.329Z,27.25
2019-06-01T17:46:15.170Z,27.10
2019-06-01T17:48:45.225Z,27.31
2019-06-01T17:51:16.247Z,27.52
2019-06-01T17:53:46.316Z,27.12
2019-06-01T17:56:16.743Z,27.30
2019-06-01T17:58:47.144Z,27.13
2019-06-01T18:01:18.255Z,27.15
2019-06-01T18:03:48.614Z,27.00
2019-06-01T18:06:20.854Z,26.94
2019-06-01T18:08:52.432Z,27.58
2019-06-01T18:11:22.830Z,28.14
2019-06-01T18:13:54.236Z,28.36
2019-06-01T18:16:24.184Z,27.06
2019-06-01T18:18:56.871Z,26.69
2019-06-01T18:21:28.776Z,26.33
2019-06-01T18:24:02.708Z,26.21
2019-06-01T18:26:31.111Z,26.30
2019-06-01T18:29:01.060Z,26.04
2019-06-01T18:31:31.015Z,26.00
2019-06-01T18:34:03.202Z,25.98
2019-06-01T18:36:34.303Z,26.05
2019-06-01T18:39:09.688Z,25.68
2019-06-01T18:41:43.685Z,25.44
2019-06-01T18:44:14.402Z,25.37
2019-06-01T18:46:45.199Z,25.39
2019-06-01T18:49:18.046Z,25.47
2019-06-01T18:51:47.061Z,25.44
2019-06-01T18:54:17.069Z,25.38
2019-06-01T18:56:47.327Z,25.45
2019-06-01T18:59:23.464Z,25.41
2019-06-01T19:01:53.721Z,25.41
2019-06-01T19:04:25.707Z,25.27
2019-06-01T19:06:56.750Z,25.27
2019-06-01T19:09:26.797Z,25.23
2019-06-01T19:11:57.720Z,25.25
2019-06-01T19:14:27.859Z,25.20
2019-06-01T19:16:58.439Z,25.22
2019-06-01T19:19:28.883Z,24.84
2019-06-01T19:21:59.307Z,24.73
2019-06-01T19:24:30.114Z,24.73
2019-06-01T19:27:00.163Z,24.59
2019-06-01T19:29:30.123Z,24.65
2019-06-01T19:32:00.464Z,24.49
2019-06-01T19:34:30.588Z,24.68
2019-06-01T19:37:02.979Z,24.42
2019-06-01T19:39:34.561Z,24.52
2019-06-01T19:42:07.192Z,24.38
2019-06-01T19:44:37.786Z,24.24
2019-06-01T19:47:09.743Z,24.36
2019-06-01T19:49:43.670Z,23.97
2019-06-01T19:52:14.786Z,23.82
2019-06-01T19:54:45.045Z,23.79
2019-06-01T19:57:18.937Z,23.87
2019-06-01T19:59:48.353Z,23.60
2019-06-01T20:02:30.658Z,23.46
2019-06-01T20:04:50.108Z,23.62
2019-06-01T20:07:21.282Z,23.43
2019-06-01T20:09:52.351Z,23.42
2019-06-01T20:12:22.942Z,23.31
2019-06-01T20:14:53.674Z,23.26
2019-06-01T20:17:26.557Z,23.30
2019-06-01T20:19:56.758Z,23.26
2019-06-01T20:22:27.206Z,23.11
2019-06-01T20:24:57.946Z,23.07
2019-06-01T20:27:31.014Z,23.09
2019-06-01T20:30:05.178Z,23.01
2019-06-01T20:32:40.086Z,23.09
2019-06-01T20:35:11.818Z,22.81
2019-06-01T20:37:42.259Z,22.85
2019-06-01T20:40:14.114Z,22.96
2019-06-01T20:42:45.197Z,22.90
2019-06-01T20:45:18.779Z,22.90
2019-06-01T20:47:49.602Z,22.78
2019-06-01T20:50:20.845Z,22.81
2019-06-01T20:52:51.110Z,22.54
2019-06-01T20:55:23.277Z,22.49
2019-06-01T20:57:54.741Z,22.72
2019-06-01T21:00:25.647Z,22.88
2019-06-01T21:02:58.368Z,22.80
2019-06-01T21:05:31.483Z,22.83
2019-06-01T21:08:05.058Z,22.90
2019-06-01T21:10:38.522Z,22.89
2019-06-01T21:13:10.497Z,22.98
2019-06-01T21:15:42.358Z,22.87
2019-06-01T21:18:14.319Z,22.77
2019-06-01T21:20:44.954Z,22.62
2019-06-01T21:23:14.785Z,22.65
2019-06-01T21:25:44.575Z,22.50
2019-06-01T21:28:18.092Z,22.43
2019-06-01T21:30:47.979Z,22.30
2019-06-01T21:33:19.797Z,22.40
2019-06-01T21:35:50.105Z,22.39
2019-06-01T21:38:21.386Z,22.44
2019-06-01T21:40:51.443Z,22.40
2019-06-01T21:43:31.935Z,22.15
2019-06-01T21:45:53.693Z,22.32
2019-06-01T21:48:24.323Z,22.22
2019-06-01T21:50:54.591Z,22.20
2019-06-01T21:53:24.662Z,22.16
2019-06-01T21:55:54.749Z,21.99
2019-06-01T21:58:25.152Z,21.94
2019-06-01T22:00:55.000Z,21.92
2019-06-01T22:03:27.253Z,22.05
2019-06-01T22:05:57.505Z,21.96
2019-06-01T22:08:27.732Z,21.80
2019-06-01T22:10:57.529Z,21.89
2019-06-01T22:13:28.860Z,21.79
2019-06-01T22:15:59.321Z,21.84
2019-06-01T22:18:29.686Z,21.70
2019-06-01T22:20:59.552Z,21.79
2019-06-01T22:23:29.327Z,21.78
2019-06-01T22:25:59.125Z,21.84
2019-06-01T22:28:28.966Z,21.46
2019-06-01T22:31:00.307Z,21.54
2019-06-01T22:33:30.352Z,21.48
2019-06-01T22:36:00.143Z,21.26
2019-06-01T22:38:32.183Z,21.18
2019-06-01T22:41:01.972Z,21.46
2019-06-01T22:43:45.449Z,21.34
2019-06-01T22:46:03.595Z,20.51
2019-06-01T22:48:38.591Z,20.48
2019-06-01T22:51:08.789Z,20.65
2019-06-01T22:53:38.543Z,20.71
2019-06-01T22:56:10.483Z,20.58
2019-06-01T22:58:40.281Z,20.34
2019-06-01T23:01:10.329Z,20.88
2019-06-01T23:03:40.403Z,20.89
2019-06-01T23:06:10.244Z,20.54
2019-06-01T23:08:40.122Z,20.91
2019-06-01T23:11:09.997Z,20.64
2019-06-01T23:13:52.910Z,20.67
2019-06-01T23:16:11.525Z,20.50
2019-06-01T23:18:41.340Z,20.72
2019-06-01T23:21:11.387Z,20.86
2019-06-01T23:23:41.390Z,20.69
2019-06-01T23:26:12.415Z,20.47
2019-06-01T23:28:42.546Z,20.68
2019-06-01T23:31:12.870Z,21.12
2019-06-01T23:33:43.239Z,21.07
2019-06-01T23:36:13.204Z,21.21
2019-06-01T23:38:43.345Z,20.99
2019-06-01T23:41:13.180Z,20.66
2019-06-01T23:43:44.239Z,21.20
2019-06-01T23:46:14.357Z,21.25
2019-06-01T23:48:44.479Z,21.28
2019-06-01T23:51:14.268Z,21.11
2019-06-01T23:53:44.787Z,21.19
2019-06-01T23:56:14.649Z,21.03
2019-06-01T23:58:44.851Z,20.86
